sensor_id;sensor_type;location;lat;lon;timestamp;temperature;humidity
8709;DHT22;4391;48.678;9.280;2022-11-11T00:00:03;3.20;99.90
8709;DHT22;4391;48.678;9.280;2022-11-11T00:02:30;3.30;99.90
8709;DHT22;4391;48.678;9.280;2022-11-11T00:05:03;3.40;99.90
8709;DHT22;4391;48.678;9.280;2022-11-11T00:07:33;3.40;99.90
8709;DHT22;4391;48.678;9.280;2022-11-11T00:10:00;3.30;99.90
8709;DHT22;4391;48.678;9.280;2022-11-11T00:12:27;3.30;99.90
8709;DHT22;4391;48.678;9.280;2022-11-11T00:14:54;3.20;99.90
8709;DHT22;4391;48.678;9.280;2022-11-11T00:17:21;3.20;99.90
8709;DHT22;4391;48.678;9.280;2022-11-11T00:20:06;3.20;99.90
8709;DHT22;4391;48.678;9.280;2022-11-11T00:22:53;3.10;99.90
8709;DHT22;4391;48.678;9.280;2022-11-11T00:25:37;3.10;99.90
8709;DHT22;4391;48.678;9.280;2022-11-11T00:28:04;3.10;99.90
8709;DHT22;4391;48.678;9.280;2022-11-11T00:30:31;3.10;99.90
8709;DHT22;4391;48.678;9.280;2022-11-11T00:32:58;3.00;99.90
8709;DHT22;4391;48.678;9.280;2022-11-11T00:35:25;3.00;99.90
8709;DHT22;4391;48.678;9.280;2022-11-11T00:38:11;3.00;99.90
8709;DHT22;4391;48.678;9.280;2022-11-11T00:40:59;2.90;99.90
8709;DHT22;4391;48.678;9.280;2022-11-11T00:43:27;2.90;99.90
8709;DHT22;4391;48.678;9.280;2022-11-11T00:45:53;2.80;99.90
8709;DHT22;4391;48.678;9.280;2022-11-11T00:48:40;2.80;99.90
8709;DHT22;4391;48.678;9.280;2022-11-11T00:51:25;2.70;99.90
8709;DHT22;4391;48.678;9.280;2022-11-11T00:53:53;2.70;99.90
8709;DHT22;4391;48.678;9.280;2022-11-11T00:56:20;2.70;99.90
8709;DHT22;4391;48.678;9.280;2022-11-11T00:58:47;2.60;99.90
8709;DHT22;4391;48.678;9.280;2022-11-11T01:01:14;2.60;99.90
8709;DHT22;4391;48.678;9.280;2022-11-11T01:03:41;2.60;99.90
8709;DHT22;4391;48.678;9.280;2022-11-11T01:06:09;2.60;99.90
8709;DHT22;4391;48.678;9.280;2022-11-11T01:08:37;2.60;99.90
8709;DHT22;4391;48.678;9.280;2022-11-11T01:11:11;2.50;99.90
8709;DHT22;4391;48.678;9.280;2022-11-11T01:13:38;2.50;99.90
8709;DHT22;4391;48.678;9.280;2022-11-11T01:16:07;2.50;99.90
8709;DHT22;4391;48.678;9.280;2022-11-11T01:18:34;2.50;99.90
8709;DHT22;4391;48.678;9.280;2022-11-11T01:21:03;2.50;99.90
8709;DHT22;4391;48.678;9.280;2022-11-11T01:23:32;2.40;99.90
8709;DHT22;4391;48.678;9.280;2022-11-11T01:26:05;2.40;99.90
8709;DHT22;4391;48.678;9.280;2022-11-11T01:28:35;2.30;99.90
8709;DHT22;4391;48.678;9.280;2022-11-11T01:31:04;2.30;99.90
8709;DHT22;4391;48.678;9.280;2022-11-11T01:33:32;2.30;99.90
8709;DHT22;4391;48.678;9.280;2022-11-11T01:36:04;2.30;99.90
8709;DHT22;4391;48.678;9.280;2022-11-11T01:38:31;2.30;99.90
8709;DHT22;4391;48.678;9.280;2022-11-11T01:40:58;2.30;99.90
8709;DHT22;4391;48.678;9.280;2022-11-11T01:43:26;2.20;99.90
8709;DHT22;4391;48.678;9.280;2022-11-11T01:45:55;2.20;99.90
8709;DHT22;4391;48.678;9.280;2022-11-11T01:48:30;2.20;99.90
8709;DHT22;4391;48.678;9.280;2022-11-11T01:51:22;2.20;99.90
8709;DHT22;4391;48.678;9.280;2022-11-11T01:53:54;2.10;99.90
8709;DHT22;4391;48.678;9.280;2022-11-11T01:56:23;2.10;99.90
8709;DHT22;4391;48.678;9.280;2022-11-11T01:58:55;2.10;99.90
8709;DHT22;4391;48.678;9.280;2022-11-11T02:01:23;2.10;99.90
8709;DHT22;4391;48.678;9.280;2022-11-11T02:03:52;2.10;99.90
8709;DHT22;4391;48.678;9.280;2022-11-11T02:06:37;2.10;99.90
8709;DHT22;4391;48.678;9.280;2022-11-11T02:09:05;2.10;99.90
8709;DHT22;4391;48.678;9.280;2022-11-11T02:11:34;2.00;99.90
8709;DHT22;4391;48.678;9.280;2022-11-11T02:14:20;2.00;99.90
8709;DHT22;4391;48.678;9.280;2022-11-11T02:17:07;2.00;99.90
8709;DHT22;4391;48.678;9.280;2022-11-11T02:19:41;2.00;99.90
8709;DHT22;4391;48.678;9.280;2022-11-11T02:22:13;1.90;99.90
8709;DHT22;4391;48.678;9.280;2022-11-11T02:24:43;1.90;99.90
8709;DHT22;4391;48.678;9.280;2022-11-11T02:27:13;1.90;99.90
8709;DHT22;4391;48.678;9.280;2022-11-11T02:29:42;1.90;99.90
8709;DHT22;4391;48.678;9.280;2022-11-11T02:32:10;1.90;99.90
8709;DHT22;4391;48.678;9.280;2022-11-11T02:34:37;2.00;99.90
8709;DHT22;4391;48.678;9.280;2022-11-11T02:37:06;2.00;99.90
8709;DHT22;4391;48.678;9.280;2022-11-11T02:39:37;2.00;99.90
8709;DHT22;4391;48.678;9.280;2022-11-11T02:42:07;2.00;99.90
8709;DHT22;4391;48.678;9.280;2022-11-11T02:44:35;1.90;99.90
8709;DHT22;4391;48.678;9.280;2022-11-11T02:47:02;1.90;99.90
8709;DHT22;4391;48.678;9.280;2022-11-11T02:49:29;1.90;99.90
8709;DHT22;4391;48.678;9.280;2022-11-11T02:51:56;1.90;99.90
8709;DHT22;4391;48.678;9.280;2022-11-11T02:54:23;1.90;99.90
8709;DHT22;4391;48.678;9.280;2022-11-11T02:56:50;1.90;99.90
8709;DHT22;4391;48.678;9.280;2022-11-11T02:59:38;1.90;99.90
8709;DHT22;4391;48.678;9.280;2022-11-11T03:02:06;1.90;99.90
8709;DHT22;4391;48.678;9.280;2022-11-11T03:04:33;1.90;99.90
8709;DHT22;4391;48.678;9.280;2022-11-11T03:07:02;1.90;99.90
8709;DHT22;4391;48.678;9.280;2022-11-11T03:09:29;1.90;99.90
8709;DHT22;4391;48.678;9.280;2022-11-11T03:11:56;1.80;99.90
8709;DHT22;4391;48.678;9.280;2022-11-11T03:14:23;1.80;99.90
8709;DHT22;4391;48.678;9.280;2022-11-11T03:16:51;1.80;99.90
8709;DHT22;4391;48.678;9.280;2022-11-11T03:19:35;1.70;99.90
8709;DHT22;4391;48.678;9.280;2022-11-11T03:22:03;1.70;99.90
8709;DHT22;4391;48.678;9.280;2022-11-11T03:24:29;1.60;99.90
8709;DHT22;4391;48.678;9.280;2022-11-11T03:27:10;1.60;99.90
8709;DHT22;4391;48.678;9.280;2022-11-11T03:29:37;1.60;99.90
8709;DHT22;4391;48.678;9.280;2022-11-11T03:32:06;1.60;99.90
8709;DHT22;4391;48.678;9.280;2022-11-11T03:34:33;1.50;99.90
8709;DHT22;4391;48.678;9.280;2022-11-11T03:37:00;1.50;99.90
8709;DHT22;4391;48.678;9.280;2022-11-11T03:39:44;1.50;99.90
8709;DHT22;4391;48.678;9.280;2022-11-11T03:42:11;1.40;99.90
8709;DHT22;4391;48.678;9.280;2022-11-11T03:44:38;1.40;99.90
8709;DHT22;4391;48.678;9.280;2022-11-11T03:47:06;1.40;99.90
8709;DHT22;4391;48.678;9.280;2022-11-11T03:49:33;1.40;99.90
8709;DHT22;4391;48.678;9.280;2022-11-11T03:52:00;1.40;99.90
8709;DHT22;4391;48.678;9.280;2022-11-11T03:54:27;1.30;99.90
8709;DHT22;4391;48.678;9.280;2022-11-11T03:56:53;1.30;99.90
8709;DHT22;4391;48.678;9.280;2022-11-11T03:59:41;1.40;99.90
8709;DHT22;4391;48.678;9.280;2022-11-11T04:02:11;1.30;99.90
8709;DHT22;4391;48.678;9.280;2022-11-11T04:04:56;1.40;99.90
8709;DHT22;4391;48.678;9.280;2022-11-11T04:07:40;1.30;99.90
8709;DHT22;4391;48.678;9.280;2022-11-11T04:10:24;1.30;99.90
8709;DHT22;4391;48.678;9.280;2022-11-11T04:12:52;1.30;99.90
8709;DHT22;4391;48.678;9.280;2022-11-11T04:15:37;1.30;99.90
8709;DHT22;4391;48.678;9.280;2022-11-11T04:18:23;1.30;99.90
8709;DHT22;4391;48.678;9.280;2022-11-11T04:21:03;1.30;99.90
8709;DHT22;4391;48.678;9.280;2022-11-11T04:23:47;1.30;99.90
8709;DHT22;4391;48.678;9.280;2022-11-11T04:26:14;1.30;99.90
8709;DHT22;4391;48.678;9.280;2022-11-11T04:28:40;1.30;99.90
8709;DHT22;4391;48.678;9.280;2022-11-11T04:31:24;1.30;99.90
8709;DHT22;4391;48.678;9.280;2022-11-11T04:33:52;1.20;99.90
8709;DHT22;4391;48.678;9.280;2022-11-11T04:36:18;1.20;99.90
8709;DHT22;4391;48.678;9.280;2022-11-11T04:38:45;1.30;99.90
8709;DHT22;4391;48.678;9.280;2022-11-11T04:41:29;1.20;99.90
8709;DHT22;4391;48.678;9.280;2022-11-11T04:43:56;1.20;99.90
8709;DHT22;4391;48.678;9.280;2022-11-11T04:46:41;1.20;99.90
8709;DHT22;4391;48.678;9.280;2022-11-11T04:49:09;1.20;99.90
8709;DHT22;4391;48.678;9.280;2022-11-11T04:51:36;1.20;99.90
8709;DHT22;4391;48.678;9.280;2022-11-11T04:54:16;1.20;99.90
8709;DHT22;4391;48.678;9.280;2022-11-11T04:56:43;1.20;99.90
8709;DHT22;4391;48.678;9.280;2022-11-11T04:59:12;1.10;99.90
8709;DHT22;4391;48.678;9.280;2022-11-11T05:01:41;1.10;99.90
8709;DHT22;4391;48.678;9.280;2022-11-11T05:04:39;1.10;99.90
8709;DHT22;4391;48.678;9.280;2022-11-11T05:07:06;1.10;99.90
8709;DHT22;4391;48.678;9.280;2022-11-11T05:09:50;1.10;99.90
8709;DHT22;4391;48.678;9.280;2022-11-11T05:12:17;1.10;99.90
8709;DHT22;4391;48.678;9.280;2022-11-11T05:14:44;1.10;99.90
8709;DHT22;4391;48.678;9.280;2022-11-11T05:17:28;1.10;99.90
8709;DHT22;4391;48.678;9.280;2022-11-11T05:20:14;1.10;99.90
8709;DHT22;4391;48.678;9.280;2022-11-11T05:22:57;1.10;99.90
8709;DHT22;4391;48.678;9.280;2022-11-11T05:25:24;1.10;99.90
8709;DHT22;4391;48.678;9.280;2022-11-11T05:27:50;1.10;99.90
8709;DHT22;4391;48.678;9.280;2022-11-11T05:30:18;1.10;99.90
8709;DHT22;4391;48.678;9.280;2022-11-11T05:32:45;1.10;99.90
8709;DHT22;4391;48.678;9.280;2022-11-11T05:35:14;1.10;99.90
8709;DHT22;4391;48.678;9.280;2022-11-11T05:37:41;1.10;99.90
8709;DHT22;4391;48.678;9.280;2022-11-11T05:40:09;1.20;99.90
8709;DHT22;4391;48.678;9.280;2022-11-11T05:42:40;1.20;99.90
8709;DHT22;4391;48.678;9.280;2022-11-11T05:45:09;1.10;99.90
8709;DHT22;4391;48.678;9.280;2022-11-11T05:47:36;1.10;99.90
8709;DHT22;4391;48.678;9.280;2022-11-11T05:50:03;1.20;99.90
8709;DHT22;4391;48.678;9.280;2022-11-11T05:52:31;1.10;99.90
8709;DHT22;4391;48.678;9.280;2022-11-11T05:54:58;1.10;99.90
8709;DHT22;4391;48.678;9.280;2022-11-11T05:57:25;1.10;99.90
8709;DHT22;4391;48.678;9.280;2022-11-11T05:59:51;1.00;99.90
8709;DHT22;4391;48.678;9.280;2022-11-11T06:02:18;1.00;99.90
8709;DHT22;4391;48.678;9.280;2022-11-11T06:04:45;1.00;99.90
8709;DHT22;4391;48.678;9.280;2022-11-11T06:07:12;1.00;99.90
8709;DHT22;4391;48.678;9.280;2022-11-11T06:09:40;1.00;99.90
8709;DHT22;4391;48.678;9.280;2022-11-11T06:12:07;1.00;99.90
8709;DHT22;4391;48.678;9.280;2022-11-11T06:14:34;1.00;99.90
8709;DHT22;4391;48.678;9.280;2022-11-11T06:17:01;1.00;99.90
8709;DHT22;4391;48.678;9.280;2022-11-11T06:19:28;1.00;99.90
8709;DHT22;4391;48.678;9.280;2022-11-11T06:21:55;1.00;99.90
8709;DHT22;4391;48.678;9.280;2022-11-11T06:24:26;1.00;99.90
8709;DHT22;4391;48.678;9.280;2022-11-11T06:26:54;1.00;99.90
8709;DHT22;4391;48.678;9.280;2022-11-11T06:29:20;0.90;99.90
8709;DHT22;4391;48.678;9.280;2022-11-11T06:31:47;0.90;99.90
8709;DHT22;4391;48.678;9.280;2022-11-11T06:34:14;0.90;99.90
8709;DHT22;4391;48.678;9.280;2022-11-11T06:36:41;0.90;99.90
8709;DHT22;4391;48.678;9.280;2022-11-11T06:39:08;1.00;99.90
8709;DHT22;4391;48.678;9.280;2022-11-11T06:41:35;1.00;99.90
8709;DHT22;4391;48.678;9.280;2022-11-11T06:44:03;1.00;99.90
8709;DHT22;4391;48.678;9.280;2022-11-11T06:46:30;1.00;99.90
8709;DHT22;4391;48.678;9.280;2022-11-11T06:48:57;1.00;99.90
8709;DHT22;4391;48.678;9.280;2022-11-11T06:51:24;1.10;99.90
8709;DHT22;4391;48.678;9.280;2022-11-11T06:53:51;1.10;99.90
8709;DHT22;4391;48.678;9.280;2022-11-11T06:56:18;1.20;99.90
8709;DHT22;4391;48.678;9.280;2022-11-11T06:58:44;1.20;99.90
8709;DHT22;4391;48.678;9.280;2022-11-11T07:01:13;1.30;99.90
8709;DHT22;4391;48.678;9.280;2022-11-11T07:03:40;1.40;99.90
8709;DHT22;4391;48.678;9.280;2022-11-11T07:06:06;1.40;99.90
8709;DHT22;4391;48.678;9.280;2022-11-11T07:08:33;1.50;99.90
8709;DHT22;4391;48.678;9.280;2022-11-11T07:11:00;1.60;99.90
8709;DHT22;4391;48.678;9.280;2022-11-11T07:13:27;1.70;99.90
8709;DHT22;4391;48.678;9.280;2022-11-11T07:15:54;1.70;99.90
8709;DHT22;4391;48.678;9.280;2022-11-11T07:18:22;1.80;99.90
8709;DHT22;4391;48.678;9.280;2022-11-11T07:20:49;1.90;99.90
8709;DHT22;4391;48.678;9.280;2022-11-11T07:23:16;1.90;99.90
8709;DHT22;4391;48.678;9.280;2022-11-11T07:25:43;2.00;99.90
8709;DHT22;4391;48.678;9.280;2022-11-11T07:28:10;2.20;99.90
8709;DHT22;4391;48.678;9.280;2022-11-11T07:30:37;2.30;99.90
8709;DHT22;4391;48.678;9.280;2022-11-11T07:33:04;2.40;99.90
8709;DHT22;4391;48.678;9.280;2022-11-11T07:35:33;2.50;99.90
8709;DHT22;4391;48.678;9.280;2022-11-11T07:38:00;2.60;99.90
8709;DHT22;4391;48.678;9.280;2022-11-11T07:40:26;2.70;99.90
8709;DHT22;4391;48.678;9.280;2022-11-11T07:42:54;3.00;99.90
8709;DHT22;4391;48.678;9.280;2022-11-11T07:45:21;3.00;99.90
8709;DHT22;4391;48.678;9.280;2022-11-11T07:47:48;3.10;99.90
8709;DHT22;4391;48.678;9.280;2022-11-11T07:50:15;3.20;99.90
8709;DHT22;4391;48.678;9.280;2022-11-11T07:52:48;3.40;99.90
8709;DHT22;4391;48.678;9.280;2022-11-11T07:55:17;3.50;99.90
8709;DHT22;4391;48.678;9.280;2022-11-11T07:57:43;3.60;99.90
8709;DHT22;4391;48.678;9.280;2022-11-11T08:00:11;3.80;99.90
8709;DHT22;4391;48.678;9.280;2022-11-11T08:02:38;3.90;99.90
8709;DHT22;4391;48.678;9.280;2022-11-11T08:05:06;4.00;99.90
8709;DHT22;4391;48.678;9.280;2022-11-11T08:07:33;4.20;99.90
8709;DHT22;4391;48.678;9.280;2022-11-11T08:10:02;4.30;99.90
8709;DHT22;4391;48.678;9.280;2022-11-11T08:12:29;4.50;99.90
8709;DHT22;4391;48.678;9.280;2022-11-11T08:15:13;4.70;99.90
8709;DHT22;4391;48.678;9.280;2022-11-11T08:17:40;4.80;99.90
8709;DHT22;4391;48.678;9.280;2022-11-11T08:20:09;4.90;99.90
8709;DHT22;4391;48.678;9.280;2022-11-11T08:22:36;5.10;99.90
8709;DHT22;4391;48.678;9.280;2022-11-11T08:25:06;5.30;99.90
8709;DHT22;4391;48.678;9.280;2022-11-11T08:27:34;5.40;99.90
8709;DHT22;4391;48.678;9.280;2022-11-11T08:30:01;5.50;99.90
8709;DHT22;4391;48.678;9.280;2022-11-11T08:32:29;5.70;99.90
8709;DHT22;4391;48.678;9.280;2022-11-11T08:34:56;5.80;99.90
8709;DHT22;4391;48.678;9.280;2022-11-11T08:37:22;6.00;99.90
8709;DHT22;4391;48.678;9.280;2022-11-11T08:39:49;6.20;99.90
8709;DHT22;4391;48.678;9.280;2022-11-11T08:42:18;6.40;99.90
8709;DHT22;4391;48.678;9.280;2022-11-11T08:44:45;6.60;99.90
8709;DHT22;4391;48.678;9.280;2022-11-11T08:47:12;6.70;96.10
8709;DHT22;4391;48.678;9.280;2022-11-11T08:49:39;6.90;99.90
8709;DHT22;4391;48.678;9.280;2022-11-11T08:52:06;7.00;99.90
8709;DHT22;4391;48.678;9.280;2022-11-11T08:54:33;7.20;99.90
8709;DHT22;4391;48.678;9.280;2022-11-11T08:57:00;7.40;76.60
8709;DHT22;4391;48.678;9.280;2022-11-11T08:59:28;7.50;76.70
8709;DHT22;4391;48.678;9.280;2022-11-11T09:01:55;7.70;98.20
8709;DHT22;4391;48.678;9.280;2022-11-11T09:04:21;7.70;82.80
8709;DHT22;4391;48.678;9.280;2022-11-11T09:06:48;7.90;62.30
8709;DHT22;4391;48.678;9.280;2022-11-11T09:09:15;8.00;68.30
8709;DHT22;4391;48.678;9.280;2022-11-11T09:11:42;8.10;94.00
8709;DHT22;4391;48.678;9.280;2022-11-11T09:14:09;8.20;91.10
8709;DHT22;4391;48.678;9.280;2022-11-11T09:16:37;8.30;41.40
8709;DHT22;4391;48.678;9.280;2022-11-11T09:19:04;8.70;95.70
8709;DHT22;4391;48.678;9.280;2022-11-11T09:21:31;9.00;18.20
8709;DHT22;4391;48.678;9.280;2022-11-11T09:23:58;9.50;4.60
8709;DHT22;4391;48.678;9.280;2022-11-11T09:26:25;10.00;1.00
8709;DHT22;4391;48.678;9.280;2022-11-11T09:28:52;10.40;1.00
8709;DHT22;4391;48.678;9.280;2022-11-11T09:31:19;10.80;1.00
8709;DHT22;4391;48.678;9.280;2022-11-11T09:33:48;11.30;1.00
8709;DHT22;4391;48.678;9.280;2022-11-11T09:36:15;11.80;99.90
8709;DHT22;4391;48.678;9.280;2022-11-11T09:38:42;12.00;99.90
8709;DHT22;4391;48.678;9.280;2022-11-11T09:41:16;12.30;1.00
8709;DHT22;4391;48.678;9.280;2022-11-11T09:43:50;12.70;99.90
8709;DHT22;4391;48.678;9.280;2022-11-11T09:46:26;13.00;99.90
8709;DHT22;4391;48.678;9.280;2022-11-11T09:49:09;13.00;99.90
8709;DHT22;4391;48.678;9.280;2022-11-11T09:51:42;13.50;99.90
8709;DHT22;4391;48.678;9.280;2022-11-11T09:54:17;14.00;39.90
8709;DHT22;4391;48.678;9.280;2022-11-11T09:56:45;14.30;99.90
8709;DHT22;4391;48.678;9.280;2022-11-11T09:59:16;14.20;1.00
8709;DHT22;4391;48.678;9.280;2022-11-11T10:01:47;14.30;99.90
8709;DHT22;4391;48.678;9.280;2022-11-11T10:04:26;14.50;99.90
8709;DHT22;4391;48.678;9.280;2022-11-11T10:07:00;14.50;99.90
8709;DHT22;4391;48.678;9.280;2022-11-11T10:09:33;14.60;99.90
8709;DHT22;4391;48.678;9.280;2022-11-11T10:12:09;14.60;42.50
8709;DHT22;4391;48.678;9.280;2022-11-11T10:14:39;14.60;99.90
8709;DHT22;4391;48.678;9.280;2022-11-11T10:17:14;14.80;97.60
8709;DHT22;4391;48.678;9.280;2022-11-11T10:19:52;14.70;99.90
8709;DHT22;4391;48.678;9.280;2022-11-11T10:22:26;14.60;62.40
8709;DHT22;4391;48.678;9.280;2022-11-11T10:25:08;14.60;99.90
8709;DHT22;4391;48.678;9.280;2022-11-11T10:27:43;14.90;6.90
8709;DHT22;4391;48.678;9.280;2022-11-11T10:30:16;15.00;99.90
8709;DHT22;4391;48.678;9.280;2022-11-11T10:32:46;15.60;65.80
8709;DHT22;4391;48.678;9.280;2022-11-11T10:35:17;15.90;1.00
8709;DHT22;4391;48.678;9.280;2022-11-11T10:37:46;16.20;1.00
8709;DHT22;4391;48.678;9.280;2022-11-11T10:40:20;16.50;1.00
8709;DHT22;4391;48.678;9.280;2022-11-11T10:42:47;17.00;1.00
8709;DHT22;4391;48.678;9.280;2022-11-11T10:45:21;17.40;1.00
8709;DHT22;4391;48.678;9.280;2022-11-11T10:47:53;17.60;1.00
8709;DHT22;4391;48.678;9.280;2022-11-11T10:50:26;18.30;99.90
8709;DHT22;4391;48.678;9.280;2022-11-11T10:52:59;19.10;99.90
8709;DHT22;4391;48.678;9.280;2022-11-11T10:55:29;19.70;99.90
8709;DHT22;4391;48.678;9.280;2022-11-11T10:58:01;19.90;99.90
8709;DHT22;4391;48.678;9.280;2022-11-11T11:00:31;20.00;99.90
8709;DHT22;4391;48.678;9.280;2022-11-11T11:03:06;19.90;99.90
8709;DHT22;4391;48.678;9.280;2022-11-11T11:05:43;19.70;99.90
8709;DHT22;4391;48.678;9.280;2022-11-11T11:08:15;19.30;99.90
8709;DHT22;4391;48.678;9.280;2022-11-11T11:10:46;19.30;99.90
8709;DHT22;4391;48.678;9.280;2022-11-11T11:13:16;19.20;99.90
8709;DHT22;4391;48.678;9.280;2022-11-11T11:15:48;19.30;99.90
8709;DHT22;4391;48.678;9.280;2022-11-11T11:18:18;19.20;99.90
8709;DHT22;4391;48.678;9.280;2022-11-11T11:20:56;19.10;99.90
8709;DHT22;4391;48.678;9.280;2022-11-11T11:23:38;18.90;99.90
8709;DHT22;4391;48.678;9.280;2022-11-11T11:26:06;18.90;99.90
8709;DHT22;4391;48.678;9.280;2022-11-11T11:28:34;18.80;99.90
8709;DHT22;4391;48.678;9.280;2022-11-11T11:31:03;18.70;99.90
8709;DHT22;4391;48.678;9.280;2022-11-11T11:33:50;18.40;99.90
8709;DHT22;4391;48.678;9.280;2022-11-11T11:36:19;18.30;99.90
8709;DHT22;4391;48.678;9.280;2022-11-11T11:38:48;18.20;99.90
8709;DHT22;4391;48.678;9.280;2022-11-11T11:41:16;18.40;99.90
8709;DHT22;4391;48.678;9.280;2022-11-11T11:43:44;18.50;99.90
8709;DHT22;4391;48.678;9.280;2022-11-11T11:46:18;18.70;99.90
8709;DHT22;4391;48.678;9.280;2022-11-11T11:49:02;18.90;99.90
8709;DHT22;4391;48.678;9.280;2022-11-11T11:51:36;19.20;99.90
8709;DHT22;4391;48.678;9.280;2022-11-11T11:54:16;19.40;99.90
8709;DHT22;4391;48.678;9.280;2022-11-11T11:56:48;19.60;99.90
8709;DHT22;4391;48.678;9.280;2022-11-11T11:59:19;20.10;99.90
8709;DHT22;4391;48.678;9.280;2022-11-11T12:01:53;20.30;99.90
8709;DHT22;4391;48.678;9.280;2022-11-11T12:04:50;20.00;99.90
8709;DHT22;4391;48.678;9.280;2022-11-11T12:07:35;20.30;99.90
8709;DHT22;4391;48.678;9.280;2022-11-11T12:10:12;20.60;99.90
8709;DHT22;4391;48.678;9.280;2022-11-11T12:12:47;20.90;99.90
8709;DHT22;4391;48.678;9.280;2022-11-11T12:15:26;20.90;99.90
8709;DHT22;4391;48.678;9.280;2022-11-11T12:18:08;21.50;99.90
8709;DHT22;4391;48.678;9.280;2022-11-11T12:20:42;22.30;99.90
8709;DHT22;4391;48.678;9.280;2022-11-11T12:23:41;23.00;99.90
8709;DHT22;4391;48.678;9.280;2022-11-11T12:26:17;23.60;99.90
8709;DHT22;4391;48.678;9.280;2022-11-11T12:28:58;24.30;99.90
8709;DHT22;4391;48.678;9.280;2022-11-11T12:31:33;24.70;99.90
8709;DHT22;4391;48.678;9.280;2022-11-11T12:34:23;25.30;99.90
8709;DHT22;4391;48.678;9.280;2022-11-11T12:37:00;25.30;99.90
8709;DHT22;4391;48.678;9.280;2022-11-11T12:39:44;24.40;99.90
8709;DHT22;4391;48.678;9.280;2022-11-11T12:42:21;23.30;99.90
8709;DHT22;4391;48.678;9.280;2022-11-11T12:44:56;22.50;99.90
8709;DHT22;4391;48.678;9.280;2022-11-11T12:47:31;22.50;99.90
8709;DHT22;4391;48.678;9.280;2022-11-11T12:50:12;22.90;99.90
8709;DHT22;4391;48.678;9.280;2022-11-11T12:52:51;23.70;99.90
8709;DHT22;4391;48.678;9.280;2022-11-11T12:55:26;24.20;99.90
8709;DHT22;4391;48.678;9.280;2022-11-11T12:58:09;24.30;99.90
8709;DHT22;4391;48.678;9.280;2022-11-11T13:00:42;24.20;99.90
8709;DHT22;4391;48.678;9.280;2022-11-11T13:03:31;24.20;99.90
8709;DHT22;4391;48.678;9.280;2022-11-11T13:06:08;24.10;99.90
8709;DHT22;4391;48.678;9.280;2022-11-11T13:08:56;23.80;99.90
8709;DHT22;4391;48.678;9.280;2022-11-11T13:11:34;23.10;99.90
8709;DHT22;4391;48.678;9.280;2022-11-11T13:14:21;22.30;99.90
8709;DHT22;4391;48.678;9.280;2022-11-11T13:16:54;21.50;99.90
8709;DHT22;4391;48.678;9.280;2022-11-11T13:19:30;21.00;99.90
8709;DHT22;4391;48.678;9.280;2022-11-11T13:22:05;20.40;99.90
8709;DHT22;4391;48.678;9.280;2022-11-11T13:24:34;20.30;99.90
8709;DHT22;4391;48.678;9.280;2022-11-11T13:27:05;20.40;99.90
8709;DHT22;4391;48.678;9.280;2022-11-11T13:29:56;21.10;99.90
8709;DHT22;4391;48.678;9.280;2022-11-11T13:32:30;21.90;99.90
8709;DHT22;4391;48.678;9.280;2022-11-11T13:34:59;21.50;99.90
8709;DHT22;4391;48.678;9.280;2022-11-11T13:37:27;21.60;99.90
8709;DHT22;4391;48.678;9.280;2022-11-11T13:40:02;21.40;99.90
8709;DHT22;4391;48.678;9.280;2022-11-11T13:42:35;21.50;99.90
8709;DHT22;4391;48.678;9.280;2022-11-11T13:45:05;21.50;99.90
8709;DHT22;4391;48.678;9.280;2022-11-11T13:47:36;21.40;99.90
8709;DHT22;4391;48.678;9.280;2022-11-11T13:50:05;21.30;99.90
8709;DHT22;4391;48.678;9.280;2022-11-11T13:52:35;21.20;99.90
8709;DHT22;4391;48.678;9.280;2022-11-11T13:55:06;21.40;99.90
8709;DHT22;4391;48.678;9.280;2022-11-11T13:57:44;21.30;99.90
8709;DHT22;4391;48.678;9.280;2022-11-11T14:00:34;21.00;99.90
8709;DHT22;4391;48.678;9.280;2022-11-11T14:03:29;20.50;99.90
8709;DHT22;4391;48.678;9.280;2022-11-11T14:06:28;19.70;99.90
8709;DHT22;4391;48.678;9.280;2022-11-11T14:08:55;19.00;99.90
8709;DHT22;4391;48.678;9.280;2022-11-11T14:11:30;18.70;99.90
8709;DHT22;4391;48.678;9.280;2022-11-11T14:17:10;18.30;99.90
8709;DHT22;4391;48.678;9.280;2022-11-11T14:19:38;18.00;1.00
8709;DHT22;4391;48.678;9.280;2022-11-11T14:22:28;17.50;1.00
8709;DHT22;4391;48.678;9.280;2022-11-11T14:25:10;17.20;1.00
8709;DHT22;4391;48.678;9.280;2022-11-11T14:27:43;16.70;1.00
8709;DHT22;4391;48.678;9.280;2022-11-11T14:30:30;16.30;99.90
8709;DHT22;4391;48.678;9.280;2022-11-11T14:33:02;16.00;24.90
8709;DHT22;4391;48.678;9.280;2022-11-11T14:35:36;15.80;99.90
8709;DHT22;4391;48.678;9.280;2022-11-11T14:44:38;15.30;99.90
8709;DHT22;4391;48.678;9.280;2022-11-11T14:47:30;15.10;99.90
8709;DHT22;4391;48.678;9.280;2022-11-11T14:49:58;15.00;1.00
8709;DHT22;4391;48.678;9.280;2022-11-11T14:52:31;14.80;1.00
8709;DHT22;4391;48.678;9.280;2022-11-11T14:55:15;14.70;99.90
8709;DHT22;4391;48.678;9.280;2022-11-11T14:57:46;14.40;12.00
8709;DHT22;4391;48.678;9.280;2022-11-11T15:00:17;14.20;1.00
8709;DHT22;4391;48.678;9.280;2022-11-11T15:02:49;13.90;99.90
8709;DHT22;4391;48.678;9.280;2022-11-11T15:05:23;13.70;99.90
8709;DHT22;4391;48.678;9.280;2022-11-11T15:08:00;13.30;99.90
8709;DHT22;4391;48.678;9.280;2022-11-11T15:10:35;13.10;99.90
8709;DHT22;4391;48.678;9.280;2022-11-11T15:13:19;12.80;1.00
8709;DHT22;4391;48.678;9.280;2022-11-11T15:15:58;12.50;1.00
8709;DHT22;4391;48.678;9.280;2022-11-11T15:21:33;11.90;1.00
8709;DHT22;4391;48.678;9.280;2022-11-11T15:24:16;11.60;2.20
8709;DHT22;4391;48.678;9.280;2022-11-11T15:26:56;11.30;22.70
8709;DHT22;4391;48.678;9.280;2022-11-11T15:29:46;11.10;38.50
8709;DHT22;4391;48.678;9.280;2022-11-11T15:32:24;10.90;57.40
8709;DHT22;4391;48.678;9.280;2022-11-11T15:34:58;10.70;71.30
8709;DHT22;4391;48.678;9.280;2022-11-11T15:37:29;10.60;88.00
8709;DHT22;4391;48.678;9.280;2022-11-11T15:39:57;10.40;93.50
8709;DHT22;4391;48.678;9.280;2022-11-11T15:42:28;10.30;97.00
8709;DHT22;4391;48.678;9.280;2022-11-11T15:44:58;10.20;99.10
8709;DHT22;4391;48.678;9.280;2022-11-11T15:47:29;10.10;99.90
8709;DHT22;4391;48.678;9.280;2022-11-11T15:50:02;10.00;99.90
8709;DHT22;4391;48.678;9.280;2022-11-11T15:52:30;9.90;99.90
8709;DHT22;4391;48.678;9.280;2022-11-11T15:54:58;9.80;99.90
8709;DHT22;4391;48.678;9.280;2022-11-11T15:57:27;9.70;99.90
8709;DHT22;4391;48.678;9.280;2022-11-11T15:59:55;9.60;99.90
8709;DHT22;4391;48.678;9.280;2022-11-11T16:02:24;9.50;99.90
8709;DHT22;4391;48.678;9.280;2022-11-11T16:04:55;9.40;99.90
8709;DHT22;4391;48.678;9.280;2022-11-11T16:07:26;9.30;99.90
8709;DHT22;4391;48.678;9.280;2022-11-11T16:09:58;9.20;99.90
8709;DHT22;4391;48.678;9.280;2022-11-11T16:12:31;9.10;99.90
8709;DHT22;4391;48.678;9.280;2022-11-11T16:15:07;9.00;99.90
8709;DHT22;4391;48.678;9.280;2022-11-11T16:17:37;9.00;99.90
8709;DHT22;4391;48.678;9.280;2022-11-11T16:20:10;9.00;99.90
8709;DHT22;4391;48.678;9.280;2022-11-11T16:22:40;9.00;99.90
8709;DHT22;4391;48.678;9.280;2022-11-11T16:25:13;8.90;99.90
8709;DHT22;4391;48.678;9.280;2022-11-11T16:27:41;8.70;99.90
8709;DHT22;4391;48.678;9.280;2022-11-11T16:30:16;8.60;99.90
8709;DHT22;4391;48.678;9.280;2022-11-11T16:32:43;8.40;99.90
8709;DHT22;4391;48.678;9.280;2022-11-11T16:35:25;8.30;99.90
8709;DHT22;4391;48.678;9.280;2022-11-11T16:37:53;8.10;99.90
8709;DHT22;4391;48.678;9.280;2022-11-11T16:40:25;8.00;99.90
8709;DHT22;4391;48.678;9.280;2022-11-11T16:42:52;7.90;99.90
8709;DHT22;4391;48.678;9.280;2022-11-11T16:45:20;7.80;99.90
8709;DHT22;4391;48.678;9.280;2022-11-11T16:47:48;7.70;99.90
8709;DHT22;4391;48.678;9.280;2022-11-11T16:50:17;7.70;99.90
8709;DHT22;4391;48.678;9.280;2022-11-11T16:52:49;7.50;99.90
8709;DHT22;4391;48.678;9.280;2022-11-11T16:55:25;7.40;99.90